Time;durP1;ratioP1;P1;durP2;ratioP2;P2;SDS_P1;SDS_P2;PMS_P1;PMS_P2;Temp;Humidity;BMP_temperature;BMP_pressure;BME280_temperature;BME280_humidity;BME280_pressure;Samples;Min_cycle;Max_cycle;Signal;HPM_P1;HPM_P2
2021/12/07 00:00:38;;;;;;;2.08;1.08;;;2.40;99.90;;;;;;10385009;28;20065;-60
2021/12/07 00:05:40;;;;;;;4.00;1.30;;;2.30;99.90;;;;;;10384604;28;20408;-60
2021/12/07 00:10:43;;;;;;;5.00;1.48;;;2.20;99.90;;;;;;10385757;28;20186;-60
2021/12/07 00:15:45;;;;;;;5.07;1.73;;;2.10;99.90;;;;;;10380954;28;20041;-60
2021/12/07 00:20:47;;;;;;;5.00;1.63;;;2.00;99.90;;;;;;10384131;28;20503;-60
2021/12/07 00:25:49;;;;;;;2.78;0.88;;;2.00;99.90;;;;;;10380409;28;20108;-60
2021/12/07 00:30:52;;;;;;;2.20;1.23;;;2.00;99.90;;;;;;10384541;28;20049;-60
2021/12/07 00:35:54;;;;;;;1.85;1.05;;;2.00;99.90;;;;;;10386144;28;20056;-60
2021/12/07 00:40:58;;;;;;;2.00;1.00;;;1.90;99.90;;;;;;10384512;28;20507;-60
2021/12/07 00:46:01;;;;;;;3.63;1.05;;;1.90;99.90;;;;;;10382289;28;20080;-60
2021/12/07 00:51:04;;;;;;;3.65;1.17;;;1.60;99.90;;;;;;10381407;28;20516;-59
2021/12/07 00:56:05;;;;;;;4.25;1.05;;;1.60;99.90;;;;;;10385320;28;20566;-60
2021/12/07 01:01:13;;;;;;;2.35;0.88;;;1.60;99.90;;;;;;10380556;28;20472;-60
2021/12/07 01:27:23;;;;;;;4.43;1.25;;;1.40;99.90;;;;;;10385456;28;20093;-61
2021/12/07 01:32:39;;;;;;;2.05;1.00;;;1.40;99.90;;;;;;10391399;28;20053;-61
2021/12/07 01:37:58;;;;;;;2.83;0.98;;;1.40;99.90;;;;;;10387618;28;20045;-62
2021/12/07 01:43:31;;;;;;;2.80;1.50;;;1.40;99.90;;;;;;10392562;28;20073;-62
2021/12/07 02:04:28;;;;;;;3.50;1.70;;;1.00;99.90;;;;;;10389865;28;20049;-60
2021/12/07 02:09:32;;;;;;;2.85;1.30;;;0.90;99.90;;;;;;10404722;28;20073;-61
2021/12/07 02:14:34;;;;;;;3.97;1.48;;;0.90;99.90;;;;;;10389456;28;20131;-60
2021/12/07 02:19:37;;;;;;;4.25;1.67;;;0.80;99.90;;;;;;10391541;28;20045;-61
2021/12/07 02:24:39;;;;;;;5.03;1.90;;;0.80;99.90;;;;;;10390194;28;20559;-60
2021/12/07 02:29:41;;;;;;;2.42;1.02;;;0.80;99.90;;;;;;10387855;28;20049;-61
2021/12/07 02:34:53;;;;;;;5.07;2.13;;;0.80;99.90;;;;;;10388796;28;20123;-61
2021/12/07 02:39:56;;;;;;;4.90;2.15;;;0.70;99.90;;;;;;10391216;28;20103;-61
2021/12/07 02:44:57;;;;;;;6.20;2.10;;;0.80;99.90;;;;;;10387841;28;20065;-61
2021/12/07 02:49:59;;;;;;;5.72;2.33;;;0.80;99.90;;;;;;10385632;28;20053;-60
2021/12/07 02:55:02;;;;;;;6.38;2.50;;;0.80;99.90;;;;;;10388530;28;20076;-61
2021/12/07 03:00:16;;;;;;;7.28;2.60;;;0.80;99.90;;;;;;10381729;28;20053;-62
2021/12/07 03:05:39;;;;;;;10.98;3.38;;;1.00;99.90;;;;;;10385328;28;20050;-61
2021/12/07 03:26:53;;;;;;;10.75;3.75;;;1.20;99.90;;;;;;10368817;28;20045;-63
2021/12/07 03:31:54;;;;;;;7.00;3.42;;;1.40;99.90;;;;;;10387576;28;20111;-62
2021/12/07 03:36:56;;;;;;;9.80;2.72;;;1.50;99.90;;;;;;10386614;28;20053;-63
2021/12/07 03:41:58;;;;;;;9.80;3.15;;;1.60;99.90;;;;;;10383125;28;20130;-63
2021/12/07 03:46:59;;;;;;;7.13;3.00;;;1.70;99.90;;;;;;10386475;28;20583;-62
2021/12/07 03:52:01;;;;;;;5.32;2.40;;;1.80;99.90;;;;;;10385222;28;20495;-63
2021/12/07 03:57:03;;;;;;;8.65;1.73;;;2.00;99.90;;;;;;10383558;28;20127;-63
2021/12/07 04:02:07;;;;;;;4.97;1.35;;;2.20;99.90;;;;;;10381285;28;20480;-62
2021/12/07 04:07:09;;;;;;;3.38;1.05;;;2.30;99.90;;;;;;10384374;28;20055;-62
2021/12/07 04:12:11;;;;;;;3.10;1.38;;;2.40;99.90;;;;;;10380453;28;20526;-62
2021/12/07 04:17:12;;;;;;;5.35;1.60;;;2.50;99.90;;;;;;10383888;28;20045;-62
2021/12/07 04:22:14;;;;;;;6.35;1.05;;;2.60;99.90;;;;;;10385089;28;20045;-61
2021/12/07 04:27:16;;;;;;;6.25;1.20;;;2.70;99.90;;;;;;10383310;28;20119;-61
2021/12/07 04:32:17;;;;;;;6.03;0.90;;;2.90;99.90;;;;;;10384837;28;20053;-62
2021/12/07 04:37:19;;;;;;;5.30;0.68;;;2.90;99.90;;;;;;10385630;28;20073;-62
2021/12/07 04:42:21;;;;;;;6.32;0.90;;;3.00;99.90;;;;;;10384374;28;20072;-62
2021/12/07 04:47:47;;;;;;;5.70;0.52;;;3.10;99.90;;;;;;10385530;28;20072;-62
2021/12/07 04:58:09;;;;;;;4.47;0.47;;;3.10;99.90;;;;;;10382796;28;20111;-62
2021/12/07 05:03:13;;;;;;;3.97;0.65;;;3.20;99.90;;;;;;10391628;28;20108;-62
2021/12/07 05:08:28;;;;;;;3.83;0.60;;;3.20;99.90;;;;;;10394491;28;20517;-62
2021/12/07 05:13:53;;;;;;;5.20;0.82;;;3.30;99.90;;;;;;10383971;28;20131;-61
2021/12/07 05:24:22;;;;;;;2.55;0.70;;;3.20;99.90;;;;;;10385641;28;20102;-61
2021/12/07 05:39:49;;;;;;;7.47;0.50;;;3.30;99.90;;;;;;10387697;28;20053;-61
2021/12/07 05:44:54;;;;;;;3.97;0.75;;;3.40;99.90;;;;;;10382682;28;20073;-62
2021/12/07 05:49:56;;;;;;;7.65;0.80;;;3.50;99.90;;;;;;10383356;28;20084;-61
2021/12/07 05:54:58;;;;;;;5.00;0.63;;;3.50;99.90;;;;;;10390440;28;20053;-62
2021/12/07 05:59:59;;;;;;;3.85;0.70;;;3.40;99.90;;;;;;10388355;28;20650;-62
2021/12/07 06:05:01;;;;;;;3.95;0.50;;;3.50;99.90;;;;;;10389187;28;20049;-62
2021/12/07 06:10:04;;;;;;;7.47;0.68;;;3.50;99.90;;;;;;10389464;28;20168;-61
2021/12/07 06:15:07;;;;;;;0.88;0.57;;;3.50;99.90;;;;;;10388311;28;20045;-61
2021/12/07 06:20:09;;;;;;;4.80;0.70;;;3.60;99.90;;;;;;10391764;28;20045;-61
2021/12/07 06:25:30;;;;;;;6.03;0.40;;;3.60;99.90;;;;;;10388211;28;20134;-61
2021/12/07 06:30:32;;;;;;;4.20;0.55;;;3.70;99.90;;;;;;10379095;28;20135;-61
2021/12/07 06:35:33;;;;;;;4.15;0.82;;;3.70;99.90;;;;;;10389020;28;20049;-61
2021/12/07 06:40:35;;;;;;;8.48;0.80;;;3.70;99.90;;;;;;10387208;28;20084;-62
2021/12/07 06:45:37;;;;;;;8.68;0.95;;;3.70;99.90;;;;;;10387608;28;20442;-61
2021/12/07 06:50:40;;;;;;;7.40;0.60;;;3.80;99.90;;;;;;10380968;28;20099;-61
2021/12/07 06:55:42;;;;;;;2.58;0.60;;;3.80;99.90;;;;;;10381509;28;20049;-62
2021/12/07 07:00:44;;;;;;;2.55;0.70;;;3.70;99.90;;;;;;10386913;28;20092;-63
2021/12/07 07:05:46;;;;;;;7.03;0.90;;;3.80;99.90;;;;;;10387271;28;20053;-61
2021/12/07 07:10:48;;;;;;;1.98;0.65;;;3.80;99.90;;;;;;10388841;28;20054;-61
2021/12/07 07:15:50;;;;;;;3.42;0.47;;;3.80;99.90;;;;;;10385719;28;20351;-62
2021/12/07 07:20:52;;;;;;;3.90;0.55;;;3.80;99.90;;;;;;10388866;28;20041;-62
2021/12/07 07:25:55;;;;;;;10.82;1.05;;;3.80;99.90;;;;;;10383073;28;20057;-62
2021/12/07 07:30:58;;;;;;;7.38;0.70;;;3.90;99.90;;;;;;10386014;28;20115;-62
2021/12/07 07:36:00;;;;;;;3.15;0.93;;;3.80;99.90;;;;;;10386858;28;20054;-62
2021/12/07 07:41:02;;;;;;;5.18;0.50;;;3.80;99.90;;;;;;10382584;28;20446;-62
2021/12/07 07:46:04;;;;;;;8.95;0.73;;;3.80;99.90;;;;;;10385901;28;20091;-63
2021/12/07 07:51:06;;;;;;;4.25;0.60;;;3.80;99.90;;;;;;10384992;28;20053;-62
2021/12/07 07:56:08;;;;;;;4.35;0.90;;;3.70;99.90;;;;;;10383057;28;20054;-62
2021/12/07 08:01:10;;;;;;;4.55;0.47;;;3.60;99.90;;;;;;10384363;28;20435;-63
2021/12/07 08:06:12;;;;;;;2.38;0.73;;;3.60;99.90;;;;;;10385017;28;20377;-63
2021/12/07 08:11:14;;;;;;;4.85;1.08;;;3.70;99.90;;;;;;10386064;28;20404;-63
2021/12/07 08:16:21;;;;;;;10.18;1.00;;;3.70;99.90;;;;;;10386566;28;20065;-63
2021/12/07 08:21:23;;;;;;;10.77;0.90;;;3.70;99.90;;;;;;10384015;28;20037;-63
2021/12/07 08:26:26;;;;;;;5.18;0.65;;;3.70;99.90;;;;;;10383519;28;20057;-64
2021/12/07 08:31:28;;;;;;;4.93;0.63;;;3.80;99.90;;;;;;10383199;28;20048;-64
2021/12/07 08:36:30;;;;;;;7.60;0.80;;;3.80;99.90;;;;;;10385631;28;20140;-64
2021/12/07 08:41:32;;;;;;;7.40;0.95;;;3.80;99.90;;;;;;10382129;28;20080;-64
2021/12/07 08:46:34;;;;;;;6.95;0.90;;;3.80;99.90;;;;;;10387044;28;20115;-64
2021/12/07 08:51:38;;;;;;;5.18;0.82;;;3.90;99.90;;;;;;10378390;28;20085;-63
2021/12/07 09:02:00;;;;;;;4.03;0.65;;;4.00;99.90;;;;;;10381742;28;20389;-63
2021/12/07 09:07:04;;;;;;;4.20;0.75;;;4.00;99.90;;;;;;10383365;28;20492;-64
2021/12/07 09:12:07;;;;;;;8.07;0.75;;;4.00;99.90;;;;;;10380543;28;20117;-63
2021/12/07 09:17:10;;;;;;;3.83;0.60;;;4.00;99.90;;;;;;10384191;28;20061;-63
2021/12/07 09:22:12;;;;;;;4.07;0.90;;;4.00;99.90;;;;;;10383648;28;20046;-64
2021/12/07 09:27:27;;;;;;;7.80;0.77;;;4.00;99.90;;;;;;10383293;28;20130;-64
2021/12/07 09:32:29;;;;;;;6.38;0.88;;;4.10;99.90;;;;;;10377670;28;20049;-65
2021/12/07 09:37:31;;;;;;;2.53;0.40;;;4.20;99.90;;;;;;10384076;28;20111;-65
2021/12/07 09:42:33;;;;;;;6.07;0.70;;;4.30;99.90;;;;;;10382624;28;20131;-65
2021/12/07 09:47:34;;;;;;;2.35;0.50;;;4.40;99.90;;;;;;10381793;28;20053;-65
2021/12/07 09:52:36;;;;;;;4.57;0.40;;;4.50;99.90;;;;;;10386119;28;20489;-65
2021/12/07 09:57:38;;;;;;;3.50;0.73;;;4.60;99.90;;;;;;10390531;28;20099;-65
2021/12/07 10:02:40;;;;;;;3.80;0.50;;;4.70;99.90;;;;;;10389523;28;20053;-65
2021/12/07 10:07:47;;;;;;;4.90;0.57;;;4.80;99.90;;;;;;10385464;28;20679;-64
2021/12/07 10:12:50;;;;;;;2.95;1.20;;;4.80;99.90;;;;;;10401546;28;20079;-64
2021/12/07 10:18:22;;;;;;;5.40;0.70;;;4.90;99.90;;;;;;10388073;28;20428;-64
2021/12/07 10:23:49;;;;;;;1.75;0.52;;;5.00;99.90;;;;;;10382196;28;20053;-64
2021/12/07 10:28:54;;;;;;;3.22;0.45;;;5.00;99.90;;;;;;10390172;28;20135;-64
2021/12/07 10:33:59;;;;;;;3.15;0.50;;;5.10;99.90;;;;;;10387463;28;20903;-64
2021/12/07 10:39:06;;;;;;;3.33;0.40;;;5.10;99.90;;;;;;10389816;28;20107;-64
2021/12/07 10:44:30;;;;;;;2.10;0.40;;;5.10;99.90;;;;;;10386929;28;20059;-64
2021/12/07 10:49:37;;;;;;;2.80;1.00;;;5.10;99.90;;;;;;10389037;28;20100;-64
2021/12/07 10:54:56;;;;;;;4.55;0.40;;;5.10;99.90;;;;;;10382958;28;20069;-64
2021/12/07 11:00:09;;;;;;;4.05;1.00;;;5.10;99.90;;;;;;10386138;28;20049;-64
2021/12/07 11:05:25;;;;;;;1.80;0.30;;;5.10;99.90;;;;;;10385673;28;20056;-64
2021/12/07 11:10:33;;;;;;;1.70;0.50;;;5.00;99.90;;;;;;10420378;23;20049;-90
2021/12/07 11:15:47;;;;;;;1.88;0.35;;;5.00;99.90;;;;;;10388289;23;20044;-63
2021/12/07 11:20:51;;;;;;;4.25;0.45;;;5.00;99.90;;;;;;10348090;28;20052;-64
2021/12/07 11:31:11;;;;;;;1.08;0.22;;;5.30;99.90;;;;;;10343528;28;20819;-63
2021/12/07 11:36:22;;;;;;;5.32;0.60;;;5.40;99.90;;;;;;10344333;28;20046;-63
2021/12/07 11:41:31;;;;;;;3.58;0.52;;;5.40;99.90;;;;;;10344599;28;20053;-64
2021/12/07 11:46:36;;;;;;;5.00;0.85;;;5.50;99.90;;;;;;10347908;28;20049;-61
2021/12/07 11:51:40;;;;;;;3.13;0.40;;;5.40;99.90;;;;;;10346045;28;20053;-62
2021/12/07 11:56:42;;;;;;;4.28;0.43;;;5.40;99.90;;;;;;10346895;28;20049;-61
2021/12/07 12:01:46;;;;;;;4.40;0.30;;;5.40;99.90;;;;;;10326868;28;20049;-62
2021/12/07 12:06:57;;;;;;;1.23;0.30;;;5.60;99.90;;;;;;10323107;28;20045;-61
2021/12/07 12:12:10;;;;;;;5.72;1.23;;;5.60;99.90;;;;;;10343761;28;20160;-62
2021/12/07 12:17:29;;;;;;;4.38;0.50;;;5.70;99.90;;;;;;10343518;28;20061;-62
2021/12/07 12:22:45;;;;;;;6.80;0.68;;;5.60;99.90;;;;;;10344787;28;20050;-62
2021/12/07 12:27:50;;;;;;;2.65;0.30;;;5.60;99.90;;;;;;10326054;28;20080;-61
2021/12/07 12:33:05;;;;;;;5.00;0.43;;;5.70;99.90;;;;;;10319480;28;20046;-61
2021/12/07 12:38:28;;;;;;;3.88;0.60;;;5.70;99.90;;;;;;10341555;28;20049;-61
2021/12/07 12:43:52;;;;;;;4.85;0.25;;;5.60;99.90;;;;;;10345470;28;20045;-61
2021/12/07 12:48:57;;;;;;;1.30;0.40;;;5.60;99.90;;;;;;10338969;28;20050;-61
2021/12/07 12:54:00;;;;;;;2.28;0.40;;;5.60;99.90;;;;;;10341914;28;20139;-61
2021/12/07 12:59:05;;;;;;;2.63;0.30;;;5.70;99.90;;;;;;10327465;28;20492;-61
2021/12/07 13:04:26;;;;;;;4.68;0.77;;;5.90;99.90;;;;;;10342291;28;20085;-61
2021/12/07 13:09:37;;;;;;;0.85;0.30;;;5.90;99.90;;;;;;10336393;28;20455;-61
2021/12/07 13:14:58;;;;;;;2.47;0.35;;;5.80;99.50;;;;;;10341638;28;20187;-61
2021/12/07 13:20:11;;;;;;;6.47;0.25;;;5.70;98.10;;;;;;10344177;28;20462;-61
2021/12/07 13:25:38;;;;;;;0.50;0.20;;;5.50;99.50;;;;;;10350061;28;20100;-61
2021/12/07 13:30:49;;;;;;;5.32;0.32;;;5.70;98.40;;;;;;10348910;28;20050;-61
2021/12/07 13:35:52;;;;;;;2.55;0.30;;;5.80;96.80;;;;;;10350234;28;20060;-61
2021/12/07 13:41:14;;;;;;;4.68;0.85;;;5.90;97.80;;;;;;10352129;28;20080;-61
2021/12/07 13:46:25;;;;;;;5.13;0.40;;;5.90;97.50;;;;;;10337991;28;20045;-61
2021/12/07 13:51:28;;;;;;;2.42;0.20;;;5.90;97.50;;;;;;10348627;28;20073;-63
2021/12/07 13:56:38;;;;;;;4.80;0.60;;;5.80;97.10;;;;;;10345639;28;20487;-62
2021/12/07 14:01:48;;;;;;;6.88;0.40;;;5.60;96.50;;;;;;10351013;28;20127;-62
2021/12/07 14:06:50;;;;;;;4.78;0.40;;;5.40;97.80;;;;;;10350878;28;20064;-62
2021/12/07 14:11:58;;;;;;;5.22;0.50;;;5.30;98.30;;;;;;10351767;28;20057;-62
2021/12/07 14:17:00;;;;;;;2.33;0.20;;;5.20;97.50;;;;;;10348326;28;20079;-62
2021/12/07 14:22:03;;;;;;;6.43;0.40;;;5.30;97.80;;;;;;10349542;28;20073;-62
2021/12/07 14:27:05;;;;;;;5.60;0.60;;;5.20;97.60;;;;;;10350493;28;20034;-62
2021/12/07 14:32:10;;;;;;;7.07;0.73;;;5.30;96.50;;;;;;10345735;28;20049;-62
2021/12/07 14:37:12;;;;;;;5.95;0.30;;;5.20;97.70;;;;;;10348213;28;20526;-61
2021/12/07 14:42:17;;;;;;;2.63;0.25;;;5.30;97.10;;;;;;10348695;28;20073;-61
2021/12/07 14:47:19;;;;;;;1.13;0.32;;;5.10;98.80;;;;;;10344890;28;20109;-61
2021/12/07 14:52:35;;;;;;;5.80;0.70;;;5.10;97.80;;;;;;10348169;28;20049;-61
2021/12/07 14:57:40;;;;;;;4.22;0.45;;;5.00;97.80;;;;;;10346218;28;20072;-62
2021/12/07 15:02:42;;;;;;;7.22;0.50;;;4.90;98.80;;;;;;10347990;28;20054;-61
2021/12/07 15:07:44;;;;;;;3.95;0.70;;;4.70;99.90;;;;;;10350181;28;20128;-61
2021/12/07 15:12:49;;;;;;;4.70;0.68;;;4.60;99.90;;;;;;10347381;28;20054;-62
2021/12/07 15:17:51;;;;;;;5.97;0.80;;;4.50;99.90;;;;;;10346486;28;20085;-62
2021/12/07 15:22:53;;;;;;;4.13;0.70;;;4.30;99.90;;;;;;10347693;28;20158;-62
2021/12/07 15:27:55;;;;;;;4.88;1.02;;;4.10;99.90;;;;;;10346604;28;20100;-61
2021/12/07 15:32:56;;;;;;;10.68;0.70;;;4.00;99.90;;;;;;10342699;28;20058;-61
2021/12/07 15:37:58;;;;;;;3.50;0.70;;;3.80;99.90;;;;;;10344242;28;20385;-61
2021/12/07 15:42:59;;;;;;;8.75;0.73;;;3.60;99.90;;;;;;10347298;28;20046;-61
2021/12/07 15:48:01;;;;;;;6.13;0.60;;;3.40;99.90;;;;;;10329191;28;20045;-61
2021/12/07 15:53:14;;;;;;;5.60;1.45;;;3.30;99.90;;;;;;10342663;28;20061;-60
2021/12/07 15:58:19;;;;;;;5.13;0.85;;;3.10;99.90;;;;;;10345896;28;20057;-61
2021/12/07 16:03:30;;;;;;;2.03;0.93;;;3.10;99.90;;;;;;10345607;28;20042;-61
2021/12/07 16:08:35;;;;;;;6.60;0.80;;;3.10;99.90;;;;;;10347254;28;20132;-60
2021/12/07 16:13:41;;;;;;;2.65;0.55;;;3.10;99.90;;;;;;10341470;28;20056;-60
2021/12/07 16:18:44;;;;;;;3.95;0.80;;;3.10;99.90;;;;;;10345269;28;20057;-60
2021/12/07 16:23:51;;;;;;;4.18;1.10;;;3.20;99.90;;;;;;10343935;28;20558;-62
2021/12/07 16:28:57;;;;;;;10.75;1.77;;;3.20;99.90;;;;;;10341556;28;20056;-61
2021/12/07 16:33:59;;;;;;;2.05;0.75;;;3.30;99.90;;;;;;10341347;28;20061;-61
2021/12/07 16:39:05;;;;;;;6.80;1.35;;;3.40;99.90;;;;;;10342076;28;20049;-61
2021/12/07 16:44:07;;;;;;;8.75;1.55;;;3.40;99.90;;;;;;10340988;28;20054;-60
2021/12/07 16:49:09;;;;;;;9.57;1.38;;;3.50;99.90;;;;;;10341366;28;20050;-62
2021/12/07 16:54:11;;;;;;;5.03;0.98;;;3.40;99.90;;;;;;10342977;28;20042;-60
2021/12/07 16:59:13;;;;;;;6.78;1.10;;;3.50;99.90;;;;;;10353551;28;20100;-61
2021/12/07 17:04:15;;;;;;;10.13;1.17;;;3.50;99.90;;;;;;10350012;28;20057;-60
2021/12/07 17:09:17;;;;;;;4.82;1.10;;;3.50;99.90;;;;;;10353874;28;20455;-60
2021/12/07 17:14:18;;;;;;;7.18;1.33;;;3.60;99.90;;;;;;10353611;28;20046;-62
2021/12/07 17:19:22;;;;;;;3.97;0.80;;;3.50;99.90;;;;;;10353809;28;20778;-62
2021/12/07 17:24:26;;;;;;;6.65;1.02;;;3.60;99.90;;;;;;10349259;28;20064;-62
2021/12/07 17:29:28;;;;;;;4.00;0.85;;;3.60;99.90;;;;;;10347639;28;20085;-62
2021/12/07 17:34:29;;;;;;;6.82;0.90;;;3.60;99.90;;;;;;10345652;28;20115;-62
2021/12/07 17:39:31;;;;;;;3.20;1.02;;;3.70;99.90;;;;;;10346439;28;20088;-62
2021/12/07 17:44:33;;;;;;;13.40;0.85;;;3.70;99.90;;;;;;10350036;28;20484;-62
2021/12/07 17:49:35;;;;;;;6.63;0.73;;;3.80;99.90;;;;;;10350924;28;20172;-62
2021/12/07 17:54:37;;;;;;;1.75;0.70;;;3.80;99.90;;;;;;10349763;28;20066;-62
2021/12/07 17:59:40;;;;;;;3.05;1.55;;;3.80;99.90;;;;;;10350453;28;20534;-62
2021/12/07 18:04:41;;;;;;;6.72;0.70;;;3.80;99.90;;;;;;10348608;28;20104;-62
2021/12/07 18:09:44;;;;;;;7.03;0.80;;;3.90;99.90;;;;;;10349527;28;20112;-61
2021/12/07 18:14:48;;;;;;;2.97;0.63;;;3.90;99.90;;;;;;10349896;28;20057;-61
2021/12/07 18:19:50;;;;;;;7.15;1.10;;;3.90;99.90;;;;;;10349726;28;20116;-61
2021/12/07 18:24:52;;;;;;;8.65;0.70;;;3.90;99.90;;;;;;10348102;28;20074;-61
2021/12/07 18:30:11;;;;;;;5.45;1.00;;;3.90;99.90;;;;;;10348470;28;20571;-61
2021/12/07 18:35:14;;;;;;;4.90;0.90;;;4.00;99.90;;;;;;10344560;28;20612;-61
2021/12/07 18:40:16;;;;;;;1.63;0.75;;;4.00;99.90;;;;;;10348963;28;20049;-61
2021/12/07 18:45:18;;;;;;;7.75;0.88;;;4.00;99.90;;;;;;10351193;28;20508;-61
2021/12/07 18:50:20;;;;;;;8.35;2.20;;;4.00;99.90;;;;;;10347923;28;20053;-61
2021/12/07 18:55:22;;;;;;;2.90;0.60;;;4.00;99.90;;;;;;10349575;28;20042;-61
2021/12/07 19:00:24;;;;;;;3.55;0.77;;;3.90;99.90;;;;;;10346275;28;20100;-61
2021/12/07 19:05:26;;;;;;;2.17;0.60;;;3.90;99.90;;;;;;10344649;28;20127;-61
2021/12/07 19:10:28;;;;;;;1.83;0.50;;;3.90;99.90;;;;;;10347423;28;20111;-61
2021/12/07 19:15:29;;;;;;;3.90;0.68;;;3.80;99.90;;;;;;10343759;28;20463;-61
2021/12/07 19:20:33;;;;;;;8.50;1.00;;;3.80;99.90;;;;;;10327396;28;21103;-61
2021/12/07 19:25:35;;;;;;;4.68;0.75;;;3.70;99.90;;;;;;10343500;28;20117;-61
2021/12/07 19:30:38;;;;;;;1.88;0.63;;;3.60;99.90;;;;;;10343480;28;20054;-61
2021/12/07 19:35:43;;;;;;;5.90;0.98;;;3.60;99.90;;;;;;10327011;28;20483;-60
2021/12/07 19:40:46;;;;;;;8.35;1.00;;;3.50;99.90;;;;;;10348096;28;20131;-60
2021/12/07 19:45:50;;;;;;;3.55;0.85;;;3.50;99.90;;;;;;10346075;28;20049;-60
2021/12/07 19:51:00;;;;;;;2.10;0.50;;;3.50;99.90;;;;;;10337603;28;20073;-60
2021/12/07 19:56:06;;;;;;;2.35;0.60;;;3.40;99.90;;;;;;10344584;28;20041;-60
2021/12/07 20:01:10;;;;;;;2.67;0.98;;;3.40;99.90;;;;;;10338620;28;20657;-61
2021/12/07 20:06:13;;;;;;;2.47;1.38;;;3.30;99.90;;;;;;10343579;28;20050;-60
2021/12/07 20:11:17;;;;;;;6.88;1.05;;;3.30;99.90;;;;;;10330878;28;20050;-61
2021/12/07 20:16:19;;;;;;;6.10;0.80;;;3.20;99.90;;;;;;10344603;28;20046;-60
2021/12/07 20:21:21;;;;;;;4.20;0.50;;;3.10;99.90;;;;;;10346713;28;20136;-61
2021/12/07 20:26:26;;;;;;;4.47;0.88;;;3.10;99.90;;;;;;10346472;28;20132;-61
2021/12/07 20:31:45;;;;;;;7.70;0.80;;;3.00;99.90;;;;;;10344428;28;20046;-60
2021/12/07 20:36:46;;;;;;;3.40;0.75;;;3.00;99.90;;;;;;10345985;28;20058;-60
2021/12/07 20:41:50;;;;;;;2.83;1.08;;;3.00;99.90;;;;;;10341985;28;20499;-60
2021/12/07 20:46:52;;;;;;;0.98;0.50;;;3.00;99.90;;;;;;10344820;28;20042;-61
2021/12/07 20:51:54;;;;;;;1.60;0.70;;;3.00;99.90;;;;;;10345472;28;20050;-60
2021/12/07 20:56:56;;;;;;;5.30;0.70;;;3.00;99.90;;;;;;10344848;28;20073;-60
2021/12/07 21:01:58;;;;;;;4.38;0.70;;;3.00;99.90;;;;;;10344904;28;20460;-60
2021/12/07 21:07:00;;;;;;;1.73;0.50;;;3.00;99.90;;;;;;10320598;28;20404;-60
2021/12/07 21:12:02;;;;;;;3.28;0.77;;;3.10;99.90;;;;;;10345293;28;20068;-60
2021/12/07 21:17:05;;;;;;;2.45;0.55;;;3.00;99.90;;;;;;10344773;28;20451;-60
2021/12/07 21:22:08;;;;;;;9.63;0.98;;;3.00;99.90;;;;;;10342170;28;20772;-59
2021/12/07 21:27:12;;;;;;;3.72;1.45;;;3.00;99.90;;;;;;10338374;28;20046;-60
2021/12/07 21:32:13;;;;;;;4.88;0.80;;;3.00;99.90;;;;;;10338469;28;20058;-59
2021/12/07 21:37:18;;;;;;;2.90;0.70;;;3.00;99.90;;;;;;10342911;28;20077;-59
2021/12/07 21:42:20;;;;;;;8.43;0.85;;;3.00;99.90;;;;;;10326863;28;20142;-59
2021/12/07 21:47:22;;;;;;;4.07;0.68;;;2.90;99.90;;;;;;10352173;28;20078;-59
2021/12/07 21:52:24;;;;;;;3.35;0.65;;;2.90;99.90;;;;;;10349907;28;20077;-60
2021/12/07 21:57:26;;;;;;;1.60;0.50;;;2.90;99.90;;;;;;10347776;28;20042;-60
2021/12/07 22:02:28;;;;;;;5.95;0.60;;;2.90;99.90;;;;;;10350985;28;20116;-60
2021/12/07 22:07:29;;;;;;;3.40;0.55;;;2.90;99.90;;;;;;10351221;28;20068;-61
2021/12/07 22:12:32;;;;;;;2.58;0.57;;;2.90;99.90;;;;;;10348541;28;20045;-60
2021/12/07 22:17:34;;;;;;;1.23;0.60;;;2.90;99.90;;;;;;10351708;28;20108;-60
2021/12/07 22:22:36;;;;;;;2.08;0.50;;;3.00;99.90;;;;;;10349177;28;20053;-60
2021/12/07 22:27:38;;;;;;;1.67;0.60;;;3.00;99.90;;;;;;10350361;28;20081;-60
2021/12/07 22:32:41;;;;;;;1.48;0.52;;;3.00;99.90;;;;;;10348478;28;20073;-60
2021/12/07 22:37:43;;;;;;;5.15;0.80;;;3.00;99.90;;;;;;10349054;28;20515;-60
2021/12/07 22:42:45;;;;;;;3.88;0.60;;;3.10;99.90;;;;;;10351648;28;20058;-60
2021/12/07 22:47:47;;;;;;;1.88;0.80;;;3.10;99.90;;;;;;10349465;28;20104;-60
2021/12/07 22:52:49;;;;;;;2.38;1.05;;;3.10;99.90;;;;;;10345579;28;20074;-60
2021/12/07 22:57:50;;;;;;;1.33;0.50;;;3.20;99.90;;;;;;10350120;28;20073;-61
2021/12/07 23:02:56;;;;;;;6.72;1.00;;;3.20;99.90;;;;;;10347132;28;20112;-61
2021/12/07 23:07:59;;;;;;;2.58;0.50;;;3.20;99.90;;;;;;10329109;28;20096;-61
2021/12/07 23:13:05;;;;;;;2.08;0.40;;;3.20;99.90;;;;;;10348398;28;20112;-61
2021/12/07 23:18:11;;;;;;;3.72;0.60;;;3.10;99.90;;;;;;10349008;28;20041;-60
2021/12/07 23:23:12;;;;;;;2.80;0.50;;;3.10;99.90;;;;;;10346485;28;20046;-60
2021/12/07 23:28:16;;;;;;;2.85;0.30;;;3.00;99.90;;;;;;10347208;28;20045;-61
2021/12/07 23:33:21;;;;;;;2.30;0.40;;;3.10;99.90;;;;;;10348290;28;20108;-61
2021/12/07 23:38:23;;;;;;;0.43;0.30;;;3.10;99.90;;;;;;10347183;28;20096;-61
2021/12/07 23:43:25;;;;;;;1.50;0.47;;;3.20;99.90;;;;;;10348168;28;20050;-61
2021/12/07 23:48:27;;;;;;;1.80;0.50;;;3.20;99.90;;;;;;10344601;28;20038;-61
2021/12/07 23:53:29;;;;;;;5.40;0.65;;;3.30;99.90;;;;;;10346371;28;20050;-62
2021/12/07 23:58:33;;;;;;;1.77;0.50;;;3.40;99.90;;;;;;10347194;28;20050;-61
